KPQI/PQI METAR and TAF weather

Enter ICAO airport designator
Station Type Date Time Source
KPQI METAR 2022/06/27 17:14 UTC NOAA

KPQI 271714Z AUTO 19010KT 8SM RA SCT026 BKN032 OVC055 21/19 A2976 RMK AO2 P0003


Station Type Date Time Source
KPQI Decoded METAR 2022/06/27 17:14 UTC NOAA

Presque Isle, ME, United States (KPQI) 46-41N 068-03W 146M
Jun 27, 2022 - 01:14 PM EDT / 2022.06.27 1714 UTC
Wind: from the S (190 degrees) at 12 MPH (10 KT):0
Visibility: 8 mile(s):0
Sky conditions: overcast
Weather: rain
Precipitation last hour: 0.03 inches
Temperature: 69 F (21 C)
Dew Point: 66 F (19 C)
Relative Humidity: 88%
Pressure (altimeter): 29.76 in. Hg (1007 hPa)
ob: KPQI 271714Z AUTO 19010KT 8SM RA SCT026 BKN032 OVC055 21/19 A2976 RMK AO2 P0003
cycle: 17

Station Type Date Time Source
KPQI TAF 2022/06/27 18:34 UTC NOAA

TAF KPQI 271731Z 2718/2818 19012G20KT 4SM -SHRA OVC026
FM271930 21011KT P6SM VCSH OVC017
FM272100 21010KT P6SM VCSH OVC035
FM280000 22009KT P6SM BKN060

Example: see airport list